createdAt,value
2017-08-28T00:01:15.114Z,8.50
2017-08-28T00:03:42.770Z,7.90
2017-08-28T00:06:10.414Z,8.37
2017-08-28T00:08:38.010Z,7.90
2017-08-28T00:11:05.649Z,8.63
2017-08-28T00:13:33.263Z,8.40
2017-08-28T00:18:59.990Z,7.63
2017-08-28T00:21:27.646Z,8.33
2017-08-28T00:23:55.242Z,7.87
2017-08-28T00:26:22.825Z,8.30
2017-08-28T00:28:50.442Z,8.73
2017-08-28T00:31:18.075Z,8.90
2017-08-28T00:33:45.769Z,8.07
2017-08-28T00:36:15.503Z,8.70
2017-08-28T00:38:43.226Z,8.50
2017-08-28T00:41:11.006Z,9.00
2017-08-28T00:43:38.740Z,8.33
2017-08-28T00:46:06.489Z,9.03
2017-08-28T00:48:34.100Z,9.10
2017-08-28T00:51:01.816Z,9.83
2017-08-28T00:53:29.540Z,9.50
2017-08-28T00:55:57.131Z,9.50
2017-08-28T00:58:24.871Z,9.10
2017-08-28T01:00:52.475Z,8.40
2017-08-28T01:03:20.110Z,9.07
2017-08-28T01:09:02.316Z,9.20
2017-08-28T01:11:30.017Z,9.37
2017-08-28T01:13:57.662Z,8.30
2017-08-28T01:16:25.371Z,9.57
2017-08-28T01:18:53.048Z,9.80
2017-08-28T01:21:20.674Z,9.83
2017-08-28T01:23:48.377Z,9.97
2017-08-28T01:26:17.074Z,9.20
2017-08-28T01:28:44.665Z,9.57
2017-08-28T01:31:12.316Z,8.93
2017-08-28T01:33:39.991Z,9.90
2017-08-28T01:36:07.643Z,10.20
2017-08-28T01:38:35.290Z,10.20
2017-08-28T01:41:02.917Z,10.00
2017-08-28T01:43:30.608Z,10.70
2017-08-28T01:45:58.253Z,10.50
2017-08-28T01:48:25.918Z,11.53
2017-08-28T01:50:53.654Z,10.60
2017-08-28T01:53:21.267Z,10.53
2017-08-28T01:55:48.959Z,11.23
2017-08-28T01:58:16.583Z,11.40
2017-08-28T02:00:44.191Z,10.73
2017-08-28T02:03:11.842Z,10.93
2017-08-28T02:05:39.457Z,11.23
2017-08-28T02:08:07.075Z,10.87
2017-08-28T02:10:34.730Z,11.43
2017-08-28T02:13:02.352Z,11.10
2017-08-28T02:15:30.175Z,11.40
2017-08-28T02:17:57.799Z,11.80
2017-08-28T02:20:25.450Z,12.70
2017-08-28T02:23:14.927Z,10.93
2017-08-28T02:25:42.534Z,10.57
2017-08-28T02:28:10.190Z,11.30
2017-08-28T02:30:37.842Z,10.40
2017-08-28T02:33:05.538Z,10.87
2017-08-28T02:35:33.148Z,11.17
2017-08-28T02:38:04.463Z,10.40
2017-08-28T02:40:32.062Z,10.27
2017-08-28T02:43:00.755Z,10.37
2017-08-28T02:45:28.458Z,10.40
2017-08-28T02:47:59.547Z,10.77
2017-08-28T02:50:27.208Z,10.03
2017-08-28T02:52:54.851Z,10.80
2017-08-28T02:55:22.541Z,10.33
2017-08-28T02:57:50.255Z,9.80
2017-08-28T03:00:17.895Z,10.87
2017-08-28T03:02:45.516Z,11.00
2017-08-28T03:05:13.217Z,10.60
2017-08-28T03:07:40.847Z,11.33
2017-08-28T03:10:08.522Z,12.23
2017-08-28T03:12:40.976Z,11.67
2017-08-28T03:15:08.722Z,12.30
2017-08-28T03:17:36.385Z,13.20
2017-08-28T03:20:04.031Z,14.13
2017-08-28T03:22:31.662Z,14.90
2017-08-28T03:24:59.342Z,15.70
2017-08-28T03:27:27.089Z,15.30
2017-08-28T03:29:54.747Z,15.13
2017-08-28T03:32:22.431Z,15.00
2017-08-28T03:34:50.039Z,15.57
2017-08-28T03:37:17.686Z,14.70
2017-08-28T03:39:45.302Z,14.83
2017-08-28T03:42:14.097Z,15.40
2017-08-28T03:44:41.749Z,14.90
2017-08-28T03:47:09.379Z,13.97
2017-08-28T03:49:36.981Z,13.60
2017-08-28T03:52:04.646Z,14.43
2017-08-28T03:54:32.262Z,15.00
2017-08-28T03:56:59.856Z,16.97
2017-08-28T03:59:27.527Z,15.13
2017-08-28T04:01:55.128Z,14.83
2017-08-28T04:04:22.779Z,15.50
2017-08-28T04:06:50.428Z,14.90
2017-08-28T04:09:18.067Z,14.93
2017-08-28T04:11:45.639Z,13.83
2017-08-28T04:14:13.247Z,14.17
2017-08-28T04:16:44.459Z,14.53
2017-08-28T04:19:12.036Z,14.63
2017-08-28T04:21:39.674Z,14.80
2017-08-28T04:24:07.287Z,14.67
2017-08-28T04:26:34.871Z,13.70
2017-08-28T04:29:02.539Z,14.63
2017-08-28T04:31:30.139Z,13.47
2017-08-28T04:33:57.738Z,14.30
2017-08-28T04:36:25.419Z,13.70
2017-08-28T04:38:53.036Z,13.87
2017-08-28T04:41:20.617Z,14.40
2017-08-28T04:43:48.324Z,13.00
2017-08-28T04:46:15.952Z,14.00
2017-08-28T04:48:43.545Z,13.93
2017-08-28T04:51:11.189Z,13.03
2017-08-28T04:53:38.760Z,14.43
2017-08-28T04:56:06.350Z,13.80
2017-08-28T04:58:34.007Z,13.97
2017-08-28T05:01:07.537Z,13.17
2017-08-28T05:03:45.235Z,13.60
2017-08-28T05:06:12.839Z,14.13
2017-08-28T05:08:53.640Z,13.20
2017-08-28T05:11:21.234Z,13.23
2017-08-28T05:13:48.877Z,12.33
2017-08-28T05:16:23.407Z,13.20
2017-08-28T05:18:54.701Z,12.80
2017-08-28T05:21:22.278Z,11.10
2017-08-28T05:23:50.039Z,12.27
2017-08-28T05:26:17.711Z,12.70
2017-08-28T05:28:45.350Z,11.63
2017-08-28T05:31:13.016Z,11.83
2017-08-28T05:33:40.614Z,11.50
2017-08-28T05:36:08.295Z,10.67
2017-08-28T05:38:35.909Z,10.03
2017-08-28T05:41:03.528Z,9.87
2017-08-28T05:43:31.233Z,10.07
2017-08-28T05:45:58.873Z,9.40
2017-08-28T05:48:26.470Z,8.77
2017-08-28T05:50:54.121Z,8.37
2017-08-28T05:53:21.749Z,8.80
2017-08-28T05:55:49.428Z,8.23
2017-08-28T05:58:17.098Z,8.20
2017-08-28T06:00:44.834Z,7.40
2017-08-28T06:03:12.404Z,7.30
2017-08-28T06:05:40.003Z,7.20
2017-08-28T06:08:07.657Z,8.00
2017-08-28T06:10:39.244Z,7.50
2017-08-28T06:13:06.908Z,7.40
2017-08-28T06:15:34.513Z,6.93
2017-08-28T06:18:02.109Z,7.07
2017-08-28T06:20:29.759Z,6.87
2017-08-28T06:22:57.341Z,6.57
2017-08-28T06:25:24.957Z,7.20
2017-08-28T06:27:52.664Z,7.20
2017-08-28T06:30:20.245Z,6.90
2017-08-28T06:32:47.965Z,6.70
2017-08-28T06:35:15.616Z,7.30
2017-08-28T06:37:43.302Z,6.77
2017-08-28T06:40:10.904Z,6.07
2017-08-28T06:42:38.528Z,6.93
2017-08-28T06:45:06.118Z,5.70
2017-08-28T06:47:33.706Z,6.20
2017-08-28T06:50:01.361Z,6.20
2017-08-28T06:52:28.939Z,5.73
2017-08-28T06:54:56.519Z,6.30
2017-08-28T06:57:24.160Z,5.77
2017-08-28T06:59:51.820Z,5.23
2017-08-28T07:02:19.434Z,5.63
2017-08-28T07:04:47.052Z,5.77
2017-08-28T07:07:14.772Z,5.60
2017-08-28T07:09:42.540Z,5.40
2017-08-28T07:12:10.125Z,5.37
2017-08-28T07:14:37.726Z,5.43
2017-08-28T07:17:05.397Z,5.00
2017-08-28T07:19:33.095Z,4.93
2017-08-28T07:22:00.717Z,5.50
2017-08-28T07:24:28.341Z,5.43
2017-08-28T07:26:56.028Z,5.50
2017-08-28T07:29:23.632Z,5.10
2017-08-28T07:31:51.446Z,4.83
2017-08-28T07:34:19.079Z,4.97
2017-08-28T07:36:46.697Z,4.83
2017-08-28T07:39:14.373Z,4.70
2017-08-28T07:41:41.987Z,4.40
2017-08-28T07:44:09.613Z,4.43
2017-08-28T07:46:37.213Z,4.50
2017-08-28T07:49:04.881Z,4.25
2017-08-28T07:51:32.488Z,4.68
2017-08-28T07:54:00.069Z,4.60
2017-08-28T07:56:27.726Z,4.70
2017-08-28T07:58:55.400Z,4.25
2017-08-28T08:01:22.984Z,4.35
2017-08-28T08:03:50.668Z,4.60
2017-08-28T08:06:18.323Z,4.20
2017-08-28T08:08:45.917Z,4.70
2017-08-28T08:11:13.652Z,4.70
2017-08-28T08:13:41.298Z,4.80
2017-08-28T08:16:08.895Z,4.75
2017-08-28T08:18:36.570Z,4.68
2017-08-28T08:21:04.226Z,5.47
2017-08-28T08:23:31.850Z,5.37
2017-08-28T08:25:59.574Z,6.45
2017-08-28T08:28:27.974Z,4.60
2017-08-28T08:30:55.654Z,5.68
2017-08-28T08:33:29.178Z,5.30
2017-08-28T08:35:56.855Z,4.85
2017-08-28T08:38:24.469Z,4.80
2017-08-28T08:40:53.237Z,4.70
2017-08-28T08:43:20.846Z,5.00
2017-08-28T08:45:48.486Z,5.20
2017-08-28T08:48:16.098Z,5.25
2017-08-28T08:50:43.677Z,5.47
2017-08-28T08:53:11.361Z,4.87
2017-08-28T08:55:38.995Z,5.55
2017-08-28T08:58:06.563Z,5.85
2017-08-28T09:00:34.289Z,5.15
2017-08-28T09:03:01.950Z,6.03
2017-08-28T09:05:29.557Z,5.40
2017-08-28T09:07:57.251Z,4.78
2017-08-28T09:10:24.954Z,6.28
2017-08-28T09:12:52.581Z,4.85
2017-08-28T09:15:20.214Z,5.30
2017-08-28T09:17:47.833Z,4.40
2017-08-28T09:20:15.482Z,4.60
2017-08-28T09:22:43.153Z,5.65
2017-08-28T09:25:10.885Z,4.85
2017-08-28T09:27:38.593Z,5.40
2017-08-28T09:30:06.279Z,6.07
2017-08-28T09:32:33.951Z,5.35
2017-08-28T09:35:01.583Z,4.90
2017-08-28T09:37:29.185Z,5.65
2017-08-28T09:39:56.796Z,5.53
2017-08-28T09:42:24.434Z,5.65
2017-08-28T09:44:52.083Z,5.32
2017-08-28T09:47:19.750Z,5.87
2017-08-28T09:49:47.357Z,5.75
2017-08-28T09:52:14.966Z,5.97
2017-08-28T09:54:42.565Z,5.75
2017-08-28T09:57:10.213Z,6.18
2017-08-28T09:59:37.852Z,5.60
2017-08-28T10:02:06.719Z,5.85
2017-08-28T10:04:34.319Z,5.68
2017-08-28T10:07:01.908Z,6.97
2017-08-28T10:09:29.496Z,6.35
2017-08-28T10:11:57.114Z,6.20
2017-08-28T10:14:24.683Z,6.40
2017-08-28T10:16:52.378Z,7.18
2017-08-28T10:19:20.042Z,6.75
2017-08-28T10:21:47.643Z,5.93
2017-08-28T10:24:15.250Z,6.33
2017-08-28T10:26:42.364Z,6.47
2017-08-28T10:29:09.927Z,6.80
2017-08-28T10:31:44.508Z,6.00
2017-08-28T10:34:12.076Z,6.70
2017-08-28T10:36:39.685Z,8.10
2017-08-28T10:39:07.352Z,7.47
2017-08-28T10:41:34.977Z,7.30
2017-08-28T10:44:02.568Z,7.20
2017-08-28T10:46:31.363Z,6.30
2017-08-28T10:48:58.943Z,8.30
2017-08-28T10:51:27.469Z,7.63
2017-08-28T10:53:55.105Z,8.33
2017-08-28T10:56:22.795Z,10.27
2017-08-28T10:58:50.396Z,9.80
2017-08-28T11:01:18.023Z,9.40
2017-08-28T11:03:45.655Z,9.70
2017-08-28T11:06:13.276Z,8.67
2017-08-28T11:08:40.869Z,11.60
2017-08-28T11:11:08.499Z,10.10
2017-08-28T11:13:36.221Z,11.57
2017-08-28T11:16:03.881Z,10.43
2017-08-28T11:18:31.506Z,10.30
2017-08-28T11:20:59.111Z,12.07
2017-08-28T11:23:26.787Z,11.20
2017-08-28T11:25:54.391Z,14.27
2017-08-28T11:28:22.044Z,11.70
2017-08-28T11:30:49.723Z,12.33
2017-08-28T11:33:17.373Z,10.90
2017-08-28T11:35:44.981Z,12.50
2017-08-28T11:38:12.796Z,14.50
2017-08-28T11:40:40.398Z,12.40
2017-08-28T11:43:08.002Z,15.37
2017-08-28T11:45:35.636Z,13.80
2017-08-28T11:48:03.258Z,13.07
2017-08-28T11:50:31.004Z,14.40
2017-08-28T11:52:58.642Z,17.67
2017-08-28T11:55:26.322Z,13.67
2017-08-28T11:57:53.908Z,10.97
2017-08-28T12:00:21.574Z,10.10
2017-08-28T12:02:49.213Z,11.37
2017-08-28T12:05:16.942Z,13.60
2017-08-28T12:07:44.548Z,10.43
2017-08-28T12:10:12.190Z,14.40
2017-08-28T12:12:39.836Z,12.30
2017-08-28T12:15:07.447Z,13.13
2017-08-28T12:17:35.107Z,10.60
2017-08-28T12:20:02.750Z,14.10
2017-08-28T12:22:30.387Z,12.30
2017-08-28T12:24:58.022Z,12.27
2017-08-28T12:27:25.641Z,11.30
2017-08-28T12:29:53.220Z,11.07
2017-08-28T12:32:20.862Z,11.57
2017-08-28T12:34:48.495Z,15.70
2017-08-28T12:37:16.165Z,13.13
2017-08-28T12:40:00.925Z,12.87
2017-08-28T12:42:28.576Z,12.53
2017-08-28T12:44:56.195Z,12.03
2017-08-28T12:47:23.958Z,14.13
2017-08-28T12:49:51.597Z,15.23
2017-08-28T12:52:19.248Z,12.20
2017-08-28T12:55:06.546Z,15.10
2017-08-28T12:57:35.016Z,10.57
2017-08-28T13:00:02.680Z,13.00
2017-08-28T13:02:30.378Z,13.40
2017-08-28T13:04:57.968Z,10.97
2017-08-28T13:07:25.627Z,15.43
2017-08-28T13:09:55.040Z,11.90
2017-08-28T13:12:26.296Z,12.57
2017-08-28T13:14:53.988Z,13.33
2017-08-28T13:17:21.597Z,11.30
2017-08-28T13:19:50.002Z,11.80
2017-08-28T13:22:17.627Z,11.77
2017-08-28T13:24:45.364Z,11.90
2017-08-28T13:27:12.953Z,13.27
2017-08-28T13:29:40.637Z,13.40
2017-08-28T13:32:08.280Z,23.53
2017-08-28T13:34:35.900Z,14.40
2017-08-28T13:37:03.548Z,11.03
2017-08-28T13:39:31.163Z,12.07
2017-08-28T13:41:58.813Z,11.70
2017-08-28T13:44:26.545Z,12.80
2017-08-28T13:46:54.231Z,14.40
2017-08-28T13:49:21.857Z,14.20
2017-08-28T13:51:49.477Z,20.27
2017-08-28T13:54:17.191Z,20.67
2017-08-28T13:56:44.819Z,20.10
2017-08-28T13:59:12.422Z,22.30
2017-08-28T14:01:40.062Z,19.80
2017-08-28T14:04:07.778Z,14.00
2017-08-28T14:06:35.389Z,14.10
2017-08-28T14:09:03.036Z,17.47
2017-08-28T14:11:30.768Z,13.17
2017-08-28T14:13:58.398Z,11.83
2017-08-28T14:16:26.010Z,12.07
2017-08-28T14:18:53.691Z,13.20
2017-08-28T14:21:21.326Z,12.23
2017-08-28T14:23:48.925Z,11.60
2017-08-28T14:26:16.661Z,12.40
2017-08-28T14:28:44.250Z,13.50
2017-08-28T14:31:11.877Z,15.97
2017-08-28T14:33:39.524Z,14.33
2017-08-28T14:36:07.158Z,14.57
2017-08-28T14:38:34.776Z,12.87
2017-08-28T14:41:02.412Z,14.73
2017-08-28T14:43:30.044Z,14.77
2017-08-28T14:45:57.700Z,14.07
2017-08-28T14:48:25.283Z,12.10
2017-08-28T14:50:52.906Z,14.10
2017-08-28T14:53:20.537Z,11.10
2017-08-28T14:55:48.164Z,12.13
2017-08-28T14:58:15.807Z,14.50
2017-08-28T15:00:43.532Z,15.10
2017-08-28T15:03:11.140Z,11.90
2017-08-28T15:05:38.770Z,10.20
2017-08-28T15:08:06.479Z,12.47
2017-08-28T15:10:34.107Z,13.20
2017-08-28T15:13:01.718Z,13.47
2017-08-28T15:15:29.415Z,12.43
2017-08-28T15:17:57.131Z,13.80
2017-08-28T15:20:24.719Z,13.67
2017-08-28T15:22:52.355Z,14.30
2017-08-28T15:25:20.025Z,11.37
2017-08-28T15:27:47.680Z,12.00
2017-08-28T15:30:15.917Z,12.47
2017-08-28T15:32:43.656Z,12.00
2017-08-28T15:35:11.323Z,13.97
2017-08-28T15:37:38.936Z,13.57
2017-08-28T15:40:06.574Z,12.20
2017-08-28T15:42:34.191Z,13.27
2017-08-28T15:45:01.831Z,13.50
2017-08-28T15:47:29.479Z,15.20
2017-08-28T15:49:57.100Z,14.37
2017-08-28T15:52:24.703Z,12.80
2017-08-28T15:54:52.394Z,12.87
2017-08-28T15:57:19.977Z,13.00
2017-08-28T15:59:47.576Z,12.73
2017-08-28T16:02:15.258Z,17.50
2017-08-28T16:04:42.874Z,19.77
2017-08-28T16:07:10.489Z,18.40
2017-08-28T16:09:38.130Z,14.80
2017-08-28T16:12:05.764Z,12.90
2017-08-28T16:14:33.457Z,12.07
2017-08-28T16:17:01.122Z,15.30
2017-08-28T16:19:28.737Z,15.53
2017-08-28T16:21:56.410Z,20.00
2017-08-28T16:24:24.075Z,17.80
2017-08-28T16:26:51.686Z,21.53
2017-08-28T16:29:19.326Z,14.70
2017-08-28T16:31:46.950Z,13.50
2017-08-28T16:34:14.630Z,13.50
2017-08-28T16:36:42.328Z,12.87
2017-08-28T16:39:09.995Z,12.50
2017-08-28T16:41:37.638Z,12.03
2017-08-28T16:44:05.268Z,12.90
2017-08-28T16:46:32.864Z,14.03
2017-08-28T16:49:00.487Z,12.47
2017-08-28T16:51:28.093Z,14.27
2017-08-28T16:53:55.705Z,11.97
2017-08-28T16:56:23.396Z,13.27
2017-08-28T16:58:51.003Z,12.10
2017-08-28T17:01:18.660Z,13.10
2017-08-28T17:03:46.319Z,13.17
2017-08-28T17:06:13.954Z,12.70
2017-08-28T17:08:41.586Z,11.47
2017-08-28T17:11:09.295Z,12.30
2017-08-28T17:13:36.939Z,12.20
2017-08-28T17:16:04.550Z,12.03
2017-08-28T17:18:32.309Z,12.10
2017-08-28T17:20:59.937Z,12.97
2017-08-28T17:23:27.638Z,12.90
2017-08-28T17:25:55.343Z,15.20
2017-08-28T17:28:23.092Z,15.40
2017-08-28T17:30:50.754Z,16.13
2017-08-28T17:33:18.390Z,16.50
2017-08-28T17:35:46.029Z,14.83
2017-08-28T17:38:13.683Z,14.70
2017-08-28T17:40:41.264Z,14.87
2017-08-28T17:43:08.935Z,14.50
2017-08-28T17:45:36.626Z,12.67
2017-08-28T17:48:04.239Z,13.00
2017-08-28T17:50:31.870Z,12.30
2017-08-28T17:52:59.518Z,12.53
2017-08-28T17:55:27.120Z,13.03
2017-08-28T17:57:54.764Z,12.80
2017-08-28T18:00:22.460Z,16.60
2017-08-28T18:02:50.102Z,13.90
2017-08-28T18:05:17.737Z,19.07
2017-08-28T18:07:46.215Z,16.30
2017-08-28T18:10:13.836Z,14.50
2017-08-28T18:12:41.480Z,15.30
2017-08-28T18:15:09.133Z,15.57
2017-08-28T18:17:36.783Z,14.20
2017-08-28T18:20:04.450Z,18.60
2017-08-28T18:22:32.040Z,19.60
2017-08-28T18:24:59.749Z,19.63
2017-08-28T18:27:27.474Z,17.80
2017-08-28T18:29:55.069Z,19.50
2017-08-28T18:32:22.714Z,16.90
2017-08-28T18:34:50.398Z,16.60
2017-08-28T18:37:18.058Z,16.10
2017-08-28T18:39:45.687Z,15.87
2017-08-28T18:42:13.289Z,16.47
2017-08-28T18:44:40.996Z,17.70
2017-08-28T18:47:09.227Z,16.00
2017-08-28T18:49:37.129Z,16.47
2017-08-28T18:52:04.910Z,17.40
2017-08-28T18:54:32.683Z,16.67
2017-08-28T18:57:00.536Z,16.90
2017-08-28T18:59:28.485Z,18.20
2017-08-28T19:01:56.192Z,17.70
2017-08-28T19:04:24.127Z,17.70
2017-08-28T19:06:52.133Z,17.80
2017-08-28T19:09:19.943Z,17.53
2017-08-28T19:11:47.723Z,18.33
2017-08-28T19:14:15.633Z,18.93
2017-08-28T19:16:43.420Z,21.47
2017-08-28T19:19:11.224Z,21.83
2017-08-28T19:21:39.101Z,20.67
2017-08-28T19:24:06.837Z,22.00
2017-08-28T19:26:34.542Z,24.43
2017-08-28T19:29:02.212Z,25.57
2017-08-28T19:31:29.878Z,25.30
2017-08-28T19:34:01.985Z,25.80
2017-08-28T19:36:29.692Z,25.33
2017-08-28T19:38:57.369Z,25.43
2017-08-28T19:41:25.090Z,24.23
2017-08-28T19:43:52.839Z,23.40
2017-08-28T19:46:20.751Z,24.10
2017-08-28T19:48:48.518Z,24.10
2017-08-28T19:51:16.135Z,25.97
2017-08-28T19:53:43.763Z,24.33
2017-08-28T19:56:11.528Z,24.63
2017-08-28T19:58:39.168Z,23.93
2017-08-28T20:01:07.023Z,28.50
2017-08-28T20:03:34.834Z,27.27
2017-08-28T20:06:02.568Z,30.70
2017-08-28T20:08:30.254Z,29.57
2017-08-28T20:10:57.906Z,31.23
2017-08-28T20:13:25.657Z,33.60
2017-08-28T20:15:53.329Z,34.50
2017-08-28T20:18:20.935Z,33.23
2017-08-28T20:20:48.572Z,34.30
2017-08-28T20:23:16.285Z,34.10
2017-08-28T20:25:43.976Z,35.10
2017-08-28T20:28:11.656Z,34.67
2017-08-28T20:30:39.284Z,34.10
2017-08-28T20:33:06.923Z,34.20
2017-08-28T20:35:34.603Z,36.23
2017-08-28T20:38:02.287Z,34.57
2017-08-28T20:40:29.908Z,35.37
2017-08-28T20:42:57.567Z,38.47
2017-08-28T20:45:25.247Z,39.20
2017-08-28T20:47:52.862Z,40.40
2017-08-28T20:50:20.598Z,41.37
2017-08-28T20:52:48.461Z,40.57
2017-08-28T20:55:16.265Z,43.00
2017-08-28T20:57:44.076Z,40.10
2017-08-28T21:00:11.816Z,42.23
2017-08-28T21:02:39.566Z,41.47
2017-08-28T21:05:07.278Z,42.90
2017-08-28T21:07:34.979Z,41.03
2017-08-28T21:10:02.668Z,38.77
2017-08-28T21:12:30.562Z,38.63
2017-08-28T21:14:58.264Z,38.93
2017-08-28T21:17:26.070Z,39.50
2017-08-28T21:19:53.827Z,36.40
2017-08-28T21:22:21.578Z,38.03
2017-08-28T21:24:49.254Z,36.83
2017-08-28T21:27:17.112Z,36.00
2017-08-28T21:29:44.756Z,36.67
2017-08-28T21:32:12.371Z,37.27
2017-08-28T21:34:40.026Z,36.03
2017-08-28T21:37:07.620Z,37.40
2017-08-28T21:39:35.237Z,39.67
2017-08-28T21:42:02.993Z,42.33
2017-08-28T21:44:30.607Z,40.60
2017-08-28T21:46:58.236Z,42.20
2017-08-28T21:49:25.892Z,46.53
2017-08-28T21:51:53.609Z,46.33
2017-08-28T21:54:21.245Z,48.80
2017-08-28T21:56:48.940Z,49.23
2017-08-28T21:59:16.740Z,46.13
2017-08-28T22:01:44.479Z,47.13
2017-08-28T22:04:12.102Z,46.13
2017-08-28T22:06:39.749Z,46.17
2017-08-28T22:09:07.483Z,45.20
2017-08-28T22:11:35.094Z,49.30
2017-08-28T22:14:02.739Z,48.67
2017-08-28T22:16:30.361Z,46.70
2017-08-28T22:18:57.958Z,46.83
2017-08-28T22:21:25.548Z,47.43
2017-08-28T22:23:53.280Z,50.50
2017-08-28T22:26:31.683Z,48.57
2017-08-28T22:28:59.451Z,48.97
2017-08-28T22:31:27.097Z,50.40
2017-08-28T22:33:54.772Z,48.33
2017-08-28T22:36:22.604Z,48.87
2017-08-28T22:38:50.295Z,49.53
2017-08-28T22:41:17.974Z,50.60
2017-08-28T22:43:45.939Z,50.70
2017-08-28T22:46:13.750Z,49.60
2017-08-28T22:48:41.819Z,49.07
2017-08-28T22:51:09.721Z,49.80
2017-08-28T22:53:37.440Z,51.67
2017-08-28T22:56:05.066Z,51.47
2017-08-28T22:58:32.704Z,51.43
2017-08-28T23:01:00.379Z,51.50
2017-08-28T23:03:28.072Z,53.60
2017-08-28T23:05:55.705Z,49.40
2017-08-28T23:08:23.342Z,51.30
2017-08-28T23:10:51.010Z,50.40
2017-08-28T23:13:18.656Z,52.83
2017-08-28T23:15:46.441Z,51.87
2017-08-28T23:18:14.176Z,49.90
2017-08-28T23:20:42.082Z,51.33
2017-08-28T23:23:09.758Z,49.10
2017-08-28T23:25:37.604Z,48.60
2017-08-28T23:28:05.284Z,52.70
2017-08-28T23:30:32.970Z,49.83
2017-08-28T23:33:00.644Z,49.50
2017-08-28T23:35:28.313Z,50.63
2017-08-28T23:37:56.191Z,51.57
2017-08-28T23:40:23.884Z,52.53
2017-08-28T23:42:51.627Z,54.20
2017-08-28T23:45:19.460Z,49.50
2017-08-28T23:47:47.175Z,49.00
2017-08-28T23:50:14.817Z,53.13
2017-08-28T23:52:42.644Z,55.63
2017-08-28T23:55:10.383Z,54.90
2017-08-28T23:57:38.088Z,52.50
